createdAt,value
2022-10-17T00:00:41.866Z,101220.73
2022-10-17T00:03:35.307Z,101222.23
2022-10-17T00:06:12.377Z,101219.53
2022-10-17T00:08:46.662Z,101228.14
2022-10-17T00:11:23.418Z,101231.35
2022-10-17T00:13:58.042Z,101233.77
2022-10-17T00:16:34.611Z,101234.92
2022-10-17T00:19:08.626Z,101228.45
2022-10-17T00:21:42.290Z,101223.27
2022-10-17T00:24:15.664Z,101223.15
2022-10-17T00:26:48.774Z,101224.23
2022-10-17T00:29:22.019Z,101226.30
2022-10-17T00:31:58.401Z,101222.29
2022-10-17T00:34:32.671Z,101220.98
2022-10-17T00:37:06.319Z,101224.94
2022-10-17T00:39:39.918Z,101233.09
2022-10-17T00:42:15.911Z,101239.21
2022-10-17T00:45:09.470Z,101247.60
2022-10-17T00:47:43.789Z,101248.23
2022-10-17T00:50:18.543Z,101245.05
2022-10-17T00:52:53.479Z,101245.66
2022-10-17T00:55:32.949Z,101243.37
2022-10-17T00:58:08.216Z,101242.97
2022-10-17T01:00:42.733Z,101240.06
2022-10-17T01:03:16.232Z,101240.18
2022-10-17T01:05:50.225Z,101235.91
2022-10-17T01:08:24.535Z,101238.49
2022-10-17T01:11:09.087Z,101239.00
2022-10-17T01:13:45.930Z,101240.26
2022-10-17T01:16:24.292Z,101244.08
2022-10-17T01:19:04.487Z,101244.61
2022-10-17T01:21:56.673Z,101246.13
2022-10-17T01:24:50.823Z,101247.70
2022-10-17T01:27:54.480Z,101244.04
2022-10-17T01:31:06.775Z,101230.77
2022-10-17T01:33:52.554Z,101227.69
2022-10-17T01:36:38.237Z,101227.45
2022-10-17T01:39:20.178Z,101230.26
2022-10-17T01:42:00.894Z,101228.99
2022-10-17T01:44:42.438Z,101232.54
2022-10-17T01:47:21.286Z,101233.63
2022-10-17T01:49:54.229Z,101238.11
2022-10-17T01:52:31.925Z,101239.35
2022-10-17T01:55:10.378Z,101241.98
2022-10-17T01:57:48.218Z,101243.38
2022-10-17T02:00:24.867Z,101240.98
2022-10-17T02:03:01.206Z,101236.06
2022-10-17T02:05:38.778Z,101239.20
2022-10-17T02:08:13.347Z,101246.78
2022-10-17T02:10:56.131Z,101242.45
2022-10-17T02:13:42.333Z,101240.95
2022-10-17T02:16:29.801Z,101239.39
2022-10-17T02:19:20.122Z,101241.18
2022-10-17T02:22:02.279Z,101248.35
2022-10-17T02:24:39.373Z,101248.02
2022-10-17T02:27:22.045Z,101248.70
2022-10-17T02:30:05.408Z,101250.63
2022-10-17T02:32:49.411Z,101254.61
2022-10-17T02:35:31.144Z,101258.46
2022-10-17T02:38:06.890Z,101268.12
2022-10-17T02:40:42.882Z,101272.40
2022-10-17T02:43:16.644Z,101275.20
2022-10-17T02:45:52.006Z,101275.27
2022-10-17T02:48:32.817Z,101273.92
2022-10-17T02:51:15.007Z,101279.55
2022-10-17T02:53:57.267Z,101277.63
2022-10-17T02:56:37.406Z,101286.14
2022-10-17T02:59:16.622Z,101290.56
2022-10-17T03:01:51.907Z,101293.11
2022-10-17T03:04:26.219Z,101297.61
2022-10-17T03:07:00.187Z,101309.05
2022-10-17T03:09:33.969Z,101313.39
2022-10-17T03:12:08.192Z,101318.86
2022-10-17T03:14:41.829Z,101323.83
2022-10-17T03:17:15.585Z,101325.13
2022-10-17T03:19:49.116Z,101323.73
2022-10-17T03:22:22.541Z,101318.79
2022-10-17T03:24:55.908Z,101320.27
2022-10-17T03:27:29.873Z,101321.52
2022-10-17T03:30:03.760Z,101318.80
2022-10-17T03:32:38.566Z,101319.79
2022-10-17T03:35:15.252Z,101322.05
2022-10-17T03:37:51.228Z,101320.88
2022-10-17T03:40:26.565Z,101319.90
2022-10-17T03:43:00.769Z,101320.20
2022-10-17T03:45:35.254Z,101317.32
2022-10-17T03:48:09.591Z,101309.84
2022-10-17T03:50:43.099Z,101307.59
2022-10-17T03:53:16.790Z,101308.91
2022-10-17T03:55:50.702Z,101314.30
2022-10-17T03:58:24.742Z,101320.20
2022-10-17T04:00:59.667Z,101327.02
2022-10-17T04:03:33.796Z,101327.91
2022-10-17T04:06:10.387Z,101323.70
2022-10-17T04:08:45.906Z,101328.51
2022-10-17T04:11:24.184Z,101331.81
2022-10-17T04:14:01.775Z,101333.05
2022-10-17T04:16:37.489Z,101335.14
2022-10-17T04:19:18.699Z,101342.86
2022-10-17T04:21:53.873Z,101350.27
2022-10-17T04:24:28.218Z,101347.30
2022-10-17T04:27:08.977Z,101346.10
2022-10-17T04:29:45.754Z,101340.08
2022-10-17T04:32:26.386Z,101340.59
2022-10-17T04:35:11.113Z,101336.77
2022-10-17T04:37:46.968Z,101336.16
2022-10-17T04:40:24.771Z,101336.34
2022-10-17T04:42:58.750Z,101336.88
2022-10-17T04:45:38.005Z,101340.70
2022-10-17T04:48:11.966Z,101340.38
2022-10-17T04:50:54.784Z,101342.55
2022-10-17T04:53:48.150Z,101349.95
2022-10-17T04:56:24.090Z,101352.85
2022-10-17T04:58:57.724Z,101357.95
2022-10-17T05:01:31.343Z,101363.60
2022-10-17T05:04:06.088Z,101368.34
2022-10-17T05:06:40.727Z,101372.61
2022-10-17T05:09:43.357Z,101375.56
2022-10-17T05:12:16.897Z,101380.23
2022-10-17T05:14:51.108Z,101384.14
2022-10-17T05:17:25.020Z,101384.85
2022-10-17T05:19:58.248Z,101383.71
2022-10-17T05:22:32.006Z,101387.27
2022-10-17T05:25:06.175Z,101381.11
2022-10-17T05:27:40.242Z,101381.27
2022-10-17T05:30:15.618Z,101384.05
2022-10-17T05:32:49.821Z,101391.52
2022-10-17T05:35:23.609Z,101394.02
2022-10-17T05:37:59.616Z,101402.75
2022-10-17T05:40:34.016Z,101413.69
2022-10-17T05:43:07.924Z,101427.13
2022-10-17T05:45:41.525Z,101439.51
2022-10-17T05:48:16.722Z,101443.52
2022-10-17T05:50:50.458Z,101441.80
2022-10-17T05:53:24.286Z,101442.48
2022-10-17T05:56:02.738Z,101436.28
2022-10-17T05:58:49.949Z,101433.32
2022-10-17T06:01:33.499Z,101428.58
2022-10-17T06:04:07.298Z,101424.83
2022-10-17T06:06:42.157Z,101423.89
2022-10-17T06:09:16.133Z,101424.98
2022-10-17T06:11:52.701Z,101432.89
2022-10-17T06:14:26.800Z,101439.02
2022-10-17T06:17:04.425Z,101448.95
2022-10-17T06:19:37.999Z,101457.42
2022-10-17T06:22:12.552Z,101454.23
2022-10-17T06:24:47.210Z,101452.03
2022-10-17T06:27:21.751Z,101449.92
2022-10-17T06:29:55.966Z,101449.67
2022-10-17T06:32:30.179Z,101453.12
2022-10-17T06:35:04.066Z,101454.46
2022-10-17T06:37:39.311Z,101462.09
2022-10-17T06:40:17.614Z,101465.94
2022-10-17T06:42:51.772Z,101467.86
2022-10-17T06:45:51.524Z,101469.17
2022-10-17T06:48:36.813Z,101467.16
2022-10-17T06:51:40.392Z,101466.04
2022-10-17T06:54:16.232Z,101472.17
2022-10-17T06:57:11.807Z,101473.46
2022-10-17T07:00:06.222Z,101475.61
2022-10-17T07:02:47.687Z,101471.85
2022-10-17T07:05:21.040Z,101472.66
2022-10-17T07:07:54.669Z,101475.73
2022-10-17T07:10:28.322Z,101476.55
2022-10-17T07:13:02.009Z,101477.42
2022-10-17T07:15:40.366Z,101481.94
2022-10-17T07:18:13.919Z,101483.08
2022-10-17T07:20:54.496Z,101487.01
2022-10-17T07:23:28.366Z,101487.27
2022-10-17T07:26:07.727Z,101484.10
2022-10-17T07:28:44.225Z,101474.50
2022-10-17T07:31:38.534Z,101468.08
2022-10-17T07:34:12.751Z,101469.73
2022-10-17T07:36:47.880Z,101472.39
2022-10-17T07:39:21.807Z,101478.30
2022-10-17T07:41:55.791Z,101488.55
2022-10-17T07:44:30.367Z,101491.54
2022-10-17T07:47:04.741Z,101491.58
2022-10-17T07:49:43.256Z,101494.77
2022-10-17T07:52:16.091Z,101493.63
2022-10-17T07:54:49.529Z,101499.45
2022-10-17T07:57:23.068Z,101493.44
2022-10-17T07:59:56.589Z,101493.30
2022-10-17T08:02:30.897Z,101498.88
2022-10-17T08:05:04.749Z,101505.14
2022-10-17T08:07:38.194Z,101505.22
2022-10-17T08:10:13.360Z,101504.52
2022-10-17T08:12:47.808Z,101507.73
2022-10-17T08:15:21.827Z,101508.02
2022-10-17T08:17:56.056Z,101512.95
2022-10-17T08:20:29.368Z,101518.50
2022-10-17T08:23:03.033Z,101517.41
2022-10-17T08:25:36.895Z,101519.87
2022-10-17T08:28:10.906Z,101520.98
2022-10-17T08:30:44.472Z,101522.79
2022-10-17T08:33:17.772Z,101520.28
2022-10-17T08:35:52.813Z,101520.71
2022-10-17T08:38:27.967Z,101518.70
2022-10-17T08:41:05.023Z,101517.14
2022-10-17T08:43:57.244Z,101514.39
2022-10-17T08:46:37.531Z,101513.48
2022-10-17T08:49:18.408Z,101507.69
2022-10-17T08:52:00.857Z,101506.98
2022-10-17T08:54:43.249Z,101503.23
2022-10-17T08:57:18.065Z,101497.42
2022-10-17T08:59:58.521Z,101501.23
2022-10-17T09:02:43.046Z,101498.63
2022-10-17T09:05:48.402Z,101494.85
2022-10-17T09:08:35.595Z,101494.33
2022-10-17T09:11:19.408Z,101499.36
2022-10-17T09:14:07.692Z,101502.27
2022-10-17T09:17:01.825Z,101503.90
2022-10-17T09:19:39.505Z,101502.27
2022-10-17T09:22:19.148Z,101501.02
2022-10-17T09:24:57.374Z,101501.19
2022-10-17T09:27:33.132Z,101499.86
2022-10-17T09:30:40.530Z,101500.30
2022-10-17T09:33:35.683Z,101493.92
2022-10-17T09:36:22.018Z,101488.89
2022-10-17T09:38:57.477Z,101487.66
2022-10-17T09:41:51.012Z,101489.48
2022-10-17T09:44:27.448Z,101488.41
2022-10-17T09:47:19.091Z,101488.35
2022-10-17T09:49:54.101Z,101487.89
2022-10-17T09:52:32.659Z,101481.75
2022-10-17T09:55:17.991Z,101477.04
2022-10-17T09:57:59.582Z,101478.01
2022-10-17T10:00:36.333Z,101476.13
2022-10-17T10:03:19.899Z,101472.23
2022-10-17T10:06:14.825Z,101470.12
2022-10-17T10:08:55.856Z,101467.54
2022-10-17T10:11:49.093Z,101466.11
2022-10-17T10:14:30.181Z,101467.91
2022-10-17T10:17:06.462Z,101467.09
2022-10-17T10:19:40.271Z,101465.48
2022-10-17T10:22:19.167Z,101464.71
2022-10-17T10:25:15.684Z,101462.41
2022-10-17T10:27:49.955Z,101461.11
2022-10-17T10:30:34.933Z,101462.60
2022-10-17T10:33:15.266Z,101465.93
2022-10-17T10:35:58.302Z,101465.02
2022-10-17T10:38:32.406Z,101458.05
2022-10-17T10:41:09.459Z,101456.81
2022-10-17T10:43:47.770Z,101456.16
2022-10-17T10:46:23.801Z,101456.98
2022-10-17T10:49:00.553Z,101455.59
2022-10-17T10:51:40.338Z,101455.91
2022-10-17T10:54:19.810Z,101457.42
2022-10-17T10:56:55.179Z,101457.24
2022-10-17T10:59:37.255Z,101458.30
2022-10-17T11:02:21.083Z,101452.61
2022-10-17T11:05:00.106Z,101451.40
2022-10-17T11:07:36.835Z,101455.27
2022-10-17T11:10:16.367Z,101453.81
2022-10-17T11:12:54.351Z,101450.27
2022-10-17T11:15:36.117Z,101450.56
2022-10-17T11:18:15.201Z,101453.96
2022-10-17T11:20:55.849Z,101451.80
2022-10-17T11:23:37.478Z,101453.14
2022-10-17T11:26:16.375Z,101452.77
2022-10-17T11:28:50.338Z,101456.95
2022-10-17T11:31:28.358Z,101457.61
2022-10-17T11:34:07.215Z,101456.21
2022-10-17T11:36:45.132Z,101452.98
2022-10-17T11:39:22.336Z,101456.81
2022-10-17T11:42:03.317Z,101454.77
2022-10-17T11:44:39.395Z,101455.44
2022-10-17T11:47:23.581Z,101452.50
2022-10-17T11:53:02.199Z,101458.13
2022-10-17T11:55:38.752Z,101458.52
2022-10-17T11:58:31.847Z,101458.92
2022-10-17T12:01:16.570Z,101461.02
2022-10-17T12:04:15.651Z,101465.27
2022-10-17T12:07:01.377Z,101464.71
2022-10-17T12:09:43.220Z,101462.66
2022-10-17T12:12:28.694Z,101464.23
2022-10-17T12:15:32.511Z,101466.25
2022-10-17T12:18:06.878Z,101462.00
2022-10-17T12:20:41.663Z,101463.95
2022-10-17T12:23:29.821Z,101461.09
2022-10-17T12:26:05.504Z,101459.66
2022-10-17T12:28:58.291Z,101453.66
2022-10-17T12:31:50.552Z,101450.32
2022-10-17T12:34:25.899Z,101448.41
2022-10-17T12:36:59.687Z,101445.86
2022-10-17T12:39:56.084Z,101446.40
2022-10-17T12:42:48.392Z,101445.59
2022-10-17T12:45:53.061Z,101441.79
2022-10-17T12:48:56.808Z,101438.02
2022-10-17T12:51:35.852Z,101433.59
2022-10-17T12:54:16.854Z,101434.39
2022-10-17T12:56:52.090Z,101435.34
2022-10-17T12:59:29.536Z,101430.32
2022-10-17T13:02:14.730Z,101430.52
2022-10-17T13:04:52.213Z,101429.08
2022-10-17T13:07:27.175Z,101430.92
2022-10-17T13:10:05.452Z,101428.52
2022-10-17T13:12:42.194Z,101428.47
2022-10-17T13:15:21.927Z,101427.14
2022-10-17T13:18:03.386Z,101424.73
2022-10-17T13:20:39.090Z,101423.06
2022-10-17T13:23:28.140Z,101423.02
2022-10-17T13:26:20.625Z,101423.69
2022-10-17T13:31:45.614Z,101420.80
2022-10-17T13:34:22.473Z,101420.05
2022-10-17T13:36:58.341Z,101422.98
2022-10-17T13:42:33.823Z,101410.25
2022-10-17T13:45:15.538Z,101409.98
2022-10-17T13:47:49.997Z,101407.75
2022-10-17T13:50:44.283Z,101407.45
2022-10-17T13:53:28.417Z,101406.03
2022-10-17T13:56:30.564Z,101410.20
2022-10-17T13:59:01.892Z,101410.13
2022-10-17T14:01:36.752Z,101408.80
2022-10-17T14:04:19.472Z,101401.40
2022-10-17T14:06:54.566Z,101397.77
2022-10-17T14:09:30.797Z,101398.45
2022-10-17T14:12:11.150Z,101393.98
2022-10-17T14:15:09.886Z,101392.17
2022-10-17T14:17:46.119Z,101394.36
2022-10-17T14:23:37.464Z,101390.92
2022-10-17T14:26:17.485Z,101388.63
2022-10-17T14:28:52.618Z,101384.13
2022-10-17T14:31:36.610Z,101383.52
2022-10-17T14:34:23.485Z,101385.86
2022-10-17T14:36:58.663Z,101384.73
2022-10-17T14:39:33.729Z,101382.41
2022-10-17T14:42:10.693Z,101378.05
2022-10-17T14:44:51.014Z,101377.94
2022-10-17T14:47:43.650Z,101379.70
2022-10-17T14:50:27.467Z,101377.59
2022-10-17T14:53:07.241Z,101377.77
2022-10-17T14:55:59.653Z,101379.87
2022-10-17T14:58:37.311Z,101382.97
2022-10-17T15:01:11.382Z,101384.66
2022-10-17T15:03:46.021Z,101381.41
2022-10-17T15:06:23.034Z,101383.70
2022-10-17T15:08:57.231Z,101384.86
2022-10-17T15:11:31.542Z,101381.87
2022-10-17T15:14:06.031Z,101382.17
2022-10-17T15:16:40.733Z,101378.30
2022-10-17T15:19:16.059Z,101381.08
2022-10-17T15:21:49.424Z,101383.96
2022-10-17T15:24:22.941Z,101383.23
2022-10-17T15:26:56.920Z,101378.94
2022-10-17T15:29:30.742Z,101377.88
2022-10-17T15:32:05.513Z,101382.31
2022-10-17T15:34:38.982Z,101385.64
2022-10-17T15:37:22.720Z,101386.04
2022-10-17T15:39:56.550Z,101383.80
2022-10-17T15:42:32.585Z,101379.32
2022-10-17T15:47:51.311Z,101380.67
2022-10-17T15:50:25.118Z,101380.73
2022-10-17T15:52:59.049Z,101379.25
2022-10-17T15:55:35.581Z,101379.17
2022-10-17T15:58:13.401Z,101378.55
2022-10-17T16:00:50.052Z,101376.65
2022-10-17T16:03:25.291Z,101370.55
2022-10-17T16:06:02.654Z,101368.64
2022-10-17T16:08:37.546Z,101364.98
2022-10-17T16:11:19.890Z,101367.19
2022-10-17T16:13:58.915Z,101373.63
2022-10-17T16:16:32.610Z,101365.96
2022-10-17T16:19:07.377Z,101370.34
2022-10-17T16:21:43.413Z,101373.39
2022-10-17T16:24:18.244Z,101370.77
2022-10-17T16:26:51.812Z,101365.37
2022-10-17T16:29:26.060Z,101362.30
2022-10-17T16:32:00.081Z,101358.02
2022-10-17T16:34:35.404Z,101359.92
2022-10-17T16:37:09.265Z,101357.35
2022-10-17T16:39:43.170Z,101352.73
2022-10-17T16:42:17.450Z,101353.91
2022-10-17T16:44:51.839Z,101354.21
2022-10-17T16:47:26.130Z,101354.34
2022-10-17T16:50:00.350Z,101353.73
2022-10-17T16:52:34.272Z,101352.10
2022-10-17T16:55:08.763Z,101351.04
2022-10-17T17:00:24.746Z,101357.70
2022-10-17T17:02:58.776Z,101362.61
2022-10-17T17:05:33.629Z,101356.48
2022-10-17T17:08:11.808Z,101355.27
2022-10-17T17:10:52.182Z,101349.98
2022-10-17T17:13:26.079Z,101348.00
2022-10-17T17:16:09.554Z,101348.50
2022-10-17T17:18:44.540Z,101351.08
2022-10-17T17:21:19.208Z,101355.77
2022-10-17T17:23:53.322Z,101360.60
2022-10-17T17:26:28.974Z,101360.98
2022-10-17T17:29:04.259Z,101360.16
2022-10-17T17:31:40.065Z,101359.44
2022-10-17T17:34:18.016Z,101357.73
2022-10-17T17:36:51.688Z,101358.92
2022-10-17T17:39:25.841Z,101358.86
2022-10-17T17:41:59.942Z,101360.27
2022-10-17T17:44:35.150Z,101358.25
2022-10-17T17:47:09.544Z,101353.05
2022-10-17T17:49:43.799Z,101355.02
2022-10-17T17:52:17.148Z,101356.10
2022-10-17T17:54:51.183Z,101357.95
2022-10-17T17:57:26.112Z,101353.98
2022-10-17T18:00:35.943Z,101355.89
2022-10-17T18:03:28.402Z,101349.81
2022-10-17T18:06:02.637Z,101348.86
2022-10-17T18:08:39.508Z,101351.10
2022-10-17T18:11:17.015Z,101353.30
2022-10-17T18:13:57.168Z,101356.86
2022-10-17T18:16:32.214Z,101354.52
2022-10-17T18:19:09.982Z,101352.91
2022-10-17T18:21:45.062Z,101350.38
2022-10-17T18:24:18.990Z,101348.12
2022-10-17T18:26:57.350Z,101349.00
2022-10-17T18:29:33.900Z,101350.80
2022-10-17T18:32:08.858Z,101350.91
2022-10-17T18:34:42.172Z,101350.68
2022-10-17T18:37:16.720Z,101349.17
2022-10-17T18:39:53.369Z,101345.15
2022-10-17T18:42:27.254Z,101345.95
2022-10-17T18:45:01.593Z,101344.08
2022-10-17T18:47:37.268Z,101341.48
2022-10-17T18:50:12.835Z,101341.14
2022-10-17T18:52:46.934Z,101342.41
2022-10-17T18:55:21.550Z,101340.98
2022-10-17T18:57:56.304Z,101342.27
2022-10-17T19:00:31.017Z,101345.40
2022-10-17T19:03:06.357Z,101347.58
2022-10-17T19:05:41.487Z,101344.38
2022-10-17T19:08:16.388Z,101340.94
2022-10-17T19:10:49.699Z,101338.50
2022-10-17T19:13:23.484Z,101331.13
2022-10-17T19:15:56.545Z,101329.92
2022-10-17T19:18:30.498Z,101334.45
2022-10-17T19:21:07.410Z,101339.23
2022-10-17T19:23:41.477Z,101336.95
2022-10-17T19:26:15.604Z,101335.07
2022-10-17T19:28:50.045Z,101335.77
2022-10-17T19:31:27.292Z,101334.27
2022-10-17T19:34:02.868Z,101325.35
2022-10-17T19:36:38.490Z,101323.86
2022-10-17T19:39:14.461Z,101319.23
2022-10-17T19:41:49.931Z,101316.05
2022-10-17T19:44:23.660Z,101318.35
2022-10-17T19:46:58.979Z,101316.91
2022-10-17T19:49:34.610Z,101320.36
2022-10-17T19:52:08.742Z,101323.37
2022-10-17T19:54:43.757Z,101322.98
2022-10-17T19:57:18.641Z,101321.19
2022-10-17T19:59:55.165Z,101323.86
2022-10-17T20:02:31.026Z,101320.56
2022-10-17T20:05:18.208Z,101319.14
2022-10-17T20:07:53.455Z,101316.70
2022-10-17T20:10:27.802Z,101318.19
2022-10-17T20:13:01.231Z,101312.48
2022-10-17T20:15:35.104Z,101308.61
2022-10-17T20:18:09.755Z,101310.75
2022-10-17T20:20:43.533Z,101306.66
2022-10-17T20:23:17.163Z,101306.09
2022-10-17T20:26:06.679Z,101302.65
2022-10-17T20:28:52.972Z,101303.38
2022-10-17T20:31:26.615Z,101299.46
2022-10-17T20:34:01.276Z,101294.82
2022-10-17T20:36:37.647Z,101294.08
2022-10-17T20:39:11.951Z,101290.98
2022-10-17T20:41:45.932Z,101291.96
2022-10-17T20:44:19.057Z,101288.40
2022-10-17T20:47:01.813Z,101281.63
2022-10-17T20:49:36.254Z,101280.23
2022-10-17T20:52:09.665Z,101275.05
2022-10-17T20:54:43.280Z,101277.35
2022-10-17T20:57:16.894Z,101274.98
2022-10-17T20:59:50.854Z,101268.38
2022-10-17T21:02:24.172Z,101267.94
2022-10-17T21:04:57.446Z,101266.77
2022-10-17T21:07:31.180Z,101266.84
2022-10-17T21:10:30.657Z,101266.98
2022-10-17T21:13:00.183Z,101269.30
2022-10-17T21:15:34.254Z,101268.16
2022-10-17T21:18:07.465Z,101270.50
2022-10-17T21:20:41.166Z,101271.66
2022-10-17T21:23:15.281Z,101274.39
2022-10-17T21:25:48.576Z,101272.34
2022-10-17T21:28:21.622Z,101270.52
2022-10-17T21:30:54.982Z,101269.36
2022-10-17T21:33:30.166Z,101266.83
2022-10-17T21:36:03.253Z,101260.92
2022-10-17T21:38:37.993Z,101263.56
2022-10-17T21:41:12.549Z,101258.63
2022-10-17T21:43:47.051Z,101258.41
2022-10-17T21:46:21.193Z,101256.09
2022-10-17T21:48:54.955Z,101254.84
2022-10-17T21:51:29.007Z,101252.02
2022-10-17T21:54:05.611Z,101250.11
2022-10-17T21:56:39.442Z,101247.46
2022-10-17T21:59:12.962Z,101244.73
2022-10-17T22:01:48.261Z,101241.52
2022-10-17T22:04:22.679Z,101245.05
2022-10-17T22:06:56.173Z,101246.60
2022-10-17T22:09:29.929Z,101245.16
2022-10-17T22:12:03.292Z,101244.17
2022-10-17T22:14:36.369Z,101244.94
2022-10-17T22:17:10.099Z,101243.77
2022-10-17T22:19:43.529Z,101248.23
2022-10-17T22:22:17.058Z,101243.55
2022-10-17T22:24:50.807Z,101242.73
2022-10-17T22:27:24.405Z,101242.58
2022-10-17T22:29:57.615Z,101242.11
2022-10-17T22:32:31.292Z,101240.77
2022-10-17T22:35:04.552Z,101240.63
2022-10-17T22:37:37.612Z,101243.52
2022-10-17T22:40:12.506Z,101241.04
2022-10-17T22:42:45.733Z,101239.77
2022-10-17T22:45:18.941Z,101237.91
2022-10-17T22:47:54.205Z,101236.91
2022-10-17T22:50:28.197Z,101239.50
2022-10-17T22:53:01.674Z,101241.61
2022-10-17T22:55:35.825Z,101240.81
2022-10-17T22:58:09.007Z,101240.33
2022-10-17T23:00:42.389Z,101239.19
2022-10-17T23:03:15.586Z,101237.23
2022-10-17T23:05:49.211Z,101238.45
2022-10-17T23:08:22.825Z,101237.80
2022-10-17T23:10:56.647Z,101237.41
2022-10-17T23:13:30.143Z,101237.58
2022-10-17T23:16:03.917Z,101238.98
2022-10-17T23:18:38.372Z,101237.02
2022-10-17T23:21:12.200Z,101235.66
2022-10-17T23:23:45.535Z,101233.05
2022-10-17T23:26:19.050Z,101230.70
2022-10-17T23:28:56.792Z,101234.52
2022-10-17T23:31:30.930Z,101233.57
2022-10-17T23:34:04.249Z,101235.73
2022-10-17T23:36:38.746Z,101237.39
2022-10-17T23:39:13.203Z,101237.88
2022-10-17T23:41:46.313Z,101235.48
2022-10-17T23:44:19.559Z,101233.53
2022-10-17T23:46:53.139Z,101232.73
2022-10-17T23:49:27.192Z,101236.96
2022-10-17T23:52:00.359Z,101234.54
2022-10-17T23:54:33.999Z,101232.67
2022-10-17T23:57:07.435Z,101233.22
2022-10-17T23:59:40.888Z,101232.84
